Time;durP1;ratioP1;P1;durP2;ratioP2;P2;SDS_P1;SDS_P2;PMS_P1;PMS_P2;Temp;Humidity;BMP_temperature;BMP_pressure;BME280_temperature;BME280_humidity;BME280_pressure;Samples;Min_cycle;Max_cycle;Signal;HPM_P1;HPM_P2
2023/10/30 00:00:38;;;;;;;2.42;0.60;;;10.30;99.90;;;;;;5059919;28;20479;-69
2023/10/30 00:03:04;;;;;;;5.22;0.35;;;10.30;99.90;;;;;;5063359;28;20048;-68
2023/10/30 00:05:30;;;;;;;6.22;0.75;;;10.30;99.90;;;;;;5062777;28;20041;-69
2023/10/30 00:07:56;;;;;;;5.28;0.60;;;10.30;99.90;;;;;;5062859;28;20032;-69
2023/10/30 00:10:21;;;;;;;4.43;0.50;;;10.20;99.90;;;;;;5067811;28;20047;-69
2023/10/30 00:12:47;;;;;;;5.38;0.60;;;10.20;99.90;;;;;;5063159;28;20036;-68
2023/10/30 00:15:13;;;;;;;6.68;0.90;;;10.20;99.90;;;;;;5094091;28;20120;-68
2023/10/30 00:17:38;;;;;;;2.55;0.50;;;10.20;99.90;;;;;;5061295;28;20044;-68
2023/10/30 00:20:05;;;;;;;3.38;0.45;;;10.10;99.90;;;;;;5060028;28;20194;-68
2023/10/30 00:22:31;;;;;;;3.95;0.45;;;10.20;99.90;;;;;;5060889;28;20044;-68
2023/10/30 00:24:57;;;;;;;3.13;0.65;;;10.10;99.90;;;;;;5061697;28;20047;-69
2023/10/30 00:27:22;;;;;;;4.45;0.57;;;10.00;99.90;;;;;;5063129;28;20475;-69
2023/10/30 00:29:48;;;;;;;2.40;0.50;;;10.10;99.90;;;;;;5061014;28;20467;-69
2023/10/30 00:32:14;;;;;;;6.85;0.85;;;10.00;99.90;;;;;;5062841;28;20032;-68
2023/10/30 00:34:39;;;;;;;3.25;0.75;;;10.00;99.90;;;;;;5063316;28;20543;-68
2023/10/30 00:37:05;;;;;;;2.45;0.70;;;10.00;99.90;;;;;;5061632;28;20032;-68
2023/10/30 00:39:32;;;;;;;4.70;0.45;;;10.00;99.90;;;;;;5061930;28;20463;-68
2023/10/30 00:41:59;;;;;;;3.55;0.63;;;10.40;99.90;;;;;;5061379;28;20051;-68
2023/10/30 00:44:25;;;;;;;6.22;0.70;;;10.00;99.90;;;;;;5062070;28;20052;-68
2023/10/30 00:46:54;;;;;;;8.48;0.65;;;10.00;99.90;;;;;;5059942;28;20039;-68
2023/10/30 00:49:20;;;;;;;6.68;0.68;;;9.90;99.90;;;;;;5061067;28;20052;-68
2023/10/30 00:51:45;;;;;;;5.50;0.57;;;9.90;99.90;;;;;;5062813;28;20028;-68
2023/10/30 00:54:11;;;;;;;8.90;0.70;;;9.80;99.90;;;;;;5061281;28;20044;-68
2023/10/30 00:56:37;;;;;;;5.53;0.70;;;9.90;99.90;;;;;;5060790;28;20040;-68
2023/10/30 00:59:02;;;;;;;3.42;0.70;;;9.80;99.90;;;;;;5061531;28;21919;-68
2023/10/30 01:01:28;;;;;;;3.45;0.95;;;9.80;99.90;;;;;;5062468;28;20048;-68
2023/10/30 01:03:53;;;;;;;2.47;0.50;;;9.80;99.90;;;;;;5059644;28;20041;-68
2023/10/30 01:06:19;;;;;;;9.27;1.95;;;9.80;99.90;;;;;;5062831;28;20506;-68
2023/10/30 01:08:45;;;;;;;4.78;0.50;;;9.80;99.90;;;;;;5063521;28;20060;-69
2023/10/30 01:11:10;;;;;;;3.42;0.70;;;9.80;99.90;;;;;;5060550;28;20048;-68
2023/10/30 01:13:36;;;;;;;3.33;0.52;;;9.80;99.90;;;;;;5093641;28;20041;-68
2023/10/30 01:16:03;;;;;;;4.93;0.50;;;9.80;99.90;;;;;;5061308;28;20041;-69
2023/10/30 01:18:29;;;;;;;2.30;0.45;;;9.80;99.90;;;;;;5060615;28;20506;-69
2023/10/30 01:20:55;;;;;;;3.38;0.73;;;9.80;99.90;;;;;;5093116;28;20079;-69
2023/10/30 01:23:21;;;;;;;6.95;0.57;;;9.80;99.90;;;;;;5058031;28;20550;-69
2023/10/30 01:25:47;;;;;;;3.25;0.70;;;9.70;99.90;;;;;;5066550;28;20102;-68
2023/10/30 01:28:14;;;;;;;3.28;0.63;;;9.80;99.90;;;;;;5068306;28;20521;-69
2023/10/30 01:30:39;;;;;;;8.10;0.85;;;9.80;99.90;;;;;;5065258;28;20056;-69
2023/10/30 01:33:05;;;;;;;4.07;0.85;;;9.70;99.90;;;;;;5061902;28;20033;-69
2023/10/30 01:35:31;;;;;;;4.63;0.90;;;9.70;99.90;;;;;;5061637;28;20040;-69
2023/10/30 01:37:57;;;;;;;5.38;1.77;;;9.70;99.90;;;;;;5067679;28;20105;-68
2023/10/30 01:40:23;;;;;;;5.43;0.68;;;9.70;99.90;;;;;;5064949;28;20167;-68
2023/10/30 01:42:48;;;;;;;2.90;0.75;;;9.70;99.90;;;;;;5066061;28;20131;-68
2023/10/30 01:45:14;;;;;;;4.78;0.70;;;9.70;99.90;;;;;;5065628;28;20075;-68
2023/10/30 01:47:40;;;;;;;4.65;1.00;;;9.70;99.90;;;;;;5053308;28;20032;-68
2023/10/30 01:50:07;;;;;;;5.38;0.73;;;9.70;99.90;;;;;;5069276;28;20044;-69
2023/10/30 01:52:33;;;;;;;4.22;0.88;;;9.70;99.90;;;;;;5072893;28;20548;-69
2023/10/30 01:54:59;;;;;;;6.35;0.80;;;9.70;99.90;;;;;;5066167;28;20094;-69
2023/10/30 01:57:27;;;;;;;12.82;1.63;;;9.70;99.90;;;;;;5064528;28;20044;-69
2023/10/30 01:59:54;;;;;;;6.22;1.50;;;9.70;99.90;;;;;;5063646;28;20040;-69
2023/10/30 02:02:21;;;;;;;3.78;1.10;;;9.70;99.90;;;;;;5063755;28;20047;-68
2023/10/30 02:04:47;;;;;;;9.43;1.33;;;9.80;99.90;;;;;;5063834;28;20076;-69
2023/10/30 02:07:13;;;;;;;6.28;0.80;;;9.80;99.90;;;;;;5067219;28;20147;-69
2023/10/30 02:09:40;;;;;;;7.15;1.27;;;9.90;99.90;;;;;;5070579;28;20032;-69
2023/10/30 02:12:06;;;;;;;5.53;0.73;;;9.90;99.90;;;;;;5066745;28;20048;-69
2023/10/30 02:14:32;;;;;;;6.75;1.08;;;9.90;99.90;;;;;;5073624;28;20036;-69
2023/10/30 02:16:58;;;;;;;12.43;1.30;;;9.90;99.90;;;;;;5085793;28;20063;-69
2023/10/30 02:19:25;;;;;;;5.75;1.00;;;9.90;99.90;;;;;;5072433;28;20040;-69
2023/10/30 02:21:52;;;;;;;6.65;0.80;;;9.90;99.90;;;;;;5070738;28;20101;-69
2023/10/30 02:24:18;;;;;;;10.23;1.55;;;10.00;99.90;;;;;;5072577;28;20086;-69
2023/10/30 02:26:44;;;;;;;7.38;1.33;;;9.80;99.90;;;;;;5072991;28;20037;-69
2023/10/30 02:29:09;;;;;;;8.30;1.15;;;9.90;99.90;;;;;;5073653;28;20074;-69
2023/10/30 02:31:35;;;;;;;10.63;1.08;;;9.90;99.90;;;;;;5080858;28;20076;-69
2023/10/30 02:34:02;;;;;;;8.75;1.15;;;9.90;99.90;;;;;;5071724;28;20391;-68
2023/10/30 02:36:28;;;;;;;9.63;1.67;;;10.30;99.90;;;;;;5072606;28;20048;-68
2023/10/30 02:38:54;;;;;;;5.20;0.82;;;9.90;99.90;;;;;;5065195;28;20041;-69
2023/10/30 02:41:20;;;;;;;7.38;0.82;;;10.00;99.90;;;;;;5062618;28;20059;-69
2023/10/30 02:43:46;;;;;;;3.95;0.65;;;9.80;99.90;;;;;;5065492;28;20032;-69
2023/10/30 02:46:11;;;;;;;4.63;1.30;;;9.80;99.90;;;;;;5065790;28;20131;-69
2023/10/30 02:48:37;;;;;;;5.55;1.00;;;9.80;99.90;;;;;;5060406;28;20036;-69
2023/10/30 02:51:03;;;;;;;8.38;1.33;;;9.80;99.90;;;;;;5063046;28;20037;-69
2023/10/30 02:53:29;;;;;;;6.85;1.05;;;9.80;99.90;;;;;;5079503;28;20032;-69
2023/10/30 02:55:54;;;;;;;5.85;1.23;;;9.70;99.90;;;;;;5064309;28;20564;-69
2023/10/30 02:58:20;;;;;;;5.93;1.33;;;9.70;99.90;;;;;;5069363;28;20040;-69
2023/10/30 03:00:46;;;;;;;7.63;1.10;;;9.70;99.90;;;;;;5072322;28;20155;-69
2023/10/30 03:03:12;;;;;;;9.38;1.38;;;9.60;99.90;;;;;;5070448;28;20098;-69
2023/10/30 03:05:38;;;;;;;6.47;1.52;;;9.70;99.90;;;;;;5066992;28;20495;-68
2023/10/30 03:08:04;;;;;;;8.65;1.02;;;9.60;99.90;;;;;;5063383;28;20075;-69
2023/10/30 03:10:30;;;;;;;7.68;1.05;;;9.60;99.90;;;;;;5094525;28;20048;-69
2023/10/30 03:12:56;;;;;;;6.00;1.20;;;9.60;99.90;;;;;;5063696;28;20040;-69
2023/10/30 03:15:22;;;;;;;6.32;1.25;;;9.70;99.90;;;;;;5062609;28;20036;-69
2023/10/30 03:17:48;;;;;;;7.00;1.50;;;9.70;99.90;;;;;;5063805;28;20033;-69
2023/10/30 03:20:14;;;;;;;8.82;1.75;;;9.70;99.90;;;;;;5065138;28;20028;-69
2023/10/30 03:22:40;;;;;;;5.55;1.00;;;9.70;99.90;;;;;;5063877;28;20272;-69
2023/10/30 03:25:06;;;;;;;7.47;1.20;;;9.70;99.90;;;;;;5062452;28;20052;-69
2023/10/30 03:27:33;;;;;;;7.90;1.50;;;9.70;99.90;;;;;;5063665;28;20083;-70
2023/10/30 03:29:59;;;;;;;8.93;1.33;;;9.70;99.90;;;;;;5069791;28;20040;-68
2023/10/30 03:32:25;;;;;;;7.93;1.15;;;9.70;99.90;;;;;;5069707;28;20127;-68
2023/10/30 03:34:51;;;;;;;7.20;1.05;;;9.80;99.90;;;;;;5100029;28;20126;-69
2023/10/30 03:37:16;;;;;;;6.65;1.40;;;9.80;99.90;;;;;;5063699;28;20049;-69
2023/10/30 03:39:42;;;;;;;7.97;1.33;;;9.80;99.90;;;;;;5061683;28;20098;-69
2023/10/30 03:42:07;;;;;;;9.25;1.27;;;9.80;99.90;;;;;;5062185;28;20036;-69
2023/10/30 03:44:33;;;;;;;9.85;1.23;;;9.80;99.90;;;;;;5057881;28;20086;-69
2023/10/30 03:46:58;;;;;;;10.85;1.35;;;9.80;99.90;;;;;;5062562;28;20045;-69
2023/10/30 03:49:24;;;;;;;7.10;1.55;;;9.90;99.90;;;;;;5058847;28;20036;-68
2023/10/30 03:51:51;;;;;;;7.50;1.20;;;9.80;99.90;;;;;;5068931;28;20564;-68
2023/10/30 03:54:16;;;;;;;11.48;2.00;;;9.80;99.90;;;;;;5068136;28;20055;-69
2023/10/30 03:56:43;;;;;;;8.90;1.60;;;9.80;99.90;;;;;;5068965;28;20036;-69
2023/10/30 03:59:11;;;;;;;10.45;1.23;;;9.90;99.90;;;;;;5061038;28;20033;-69
2023/10/30 04:01:38;;;;;;;8.88;1.20;;;9.90;99.90;;;;;;5061518;28;20048;-69
2023/10/30 04:04:05;;;;;;;10.07;1.48;;;9.90;99.90;;;;;;5062867;28;20049;-69
2023/10/30 04:06:30;;;;;;;7.18;1.52;;;9.90;99.90;;;;;;5067114;28;20505;-69
2023/10/30 04:08:56;;;;;;;5.38;1.10;;;9.90;99.90;;;;;;5067799;28;20040;-68
2023/10/30 04:11:22;;;;;;;12.32;1.73;;;9.90;99.90;;;;;;5069347;28;20068;-68
2023/10/30 04:13:47;;;;;;;10.50;1.05;;;9.90;99.90;;;;;;5050143;28;20094;-68
2023/10/30 04:16:15;;;;;;;11.27;1.10;;;9.90;99.90;;;;;;5065209;28;20585;-68
2023/10/30 04:18:41;;;;;;;5.00;1.20;;;9.80;99.90;;;;;;5061837;28;20036;-68
2023/10/30 04:21:07;;;;;;;8.05;1.17;;;9.90;99.90;;;;;;5063287;28;20563;-68
2023/10/30 04:23:33;;;;;;;7.95;1.48;;;9.80;99.90;;;;;;5049838;28;20390;-69
2023/10/30 04:25:58;;;;;;;6.82;1.42;;;9.90;99.90;;;;;;5073820;28;20582;-69
2023/10/30 04:28:24;;;;;;;9.98;1.15;;;9.80;99.90;;;;;;5070077;28;20075;-69
2023/10/30 04:30:50;;;;;;;12.82;1.45;;;9.80;99.90;;;;;;5067487;28;20029;-69
2023/10/30 04:33:17;;;;;;;10.15;2.00;;;9.80;99.90;;;;;;5061890;28;20044;-69
2023/10/30 04:35:43;;;;;;;4.25;0.85;;;9.80;99.90;;;;;;5062412;28;20074;-69
2023/10/30 04:38:08;;;;;;;8.00;1.65;;;9.80;99.90;;;;;;5059282;28;20426;-69
2023/10/30 04:40:34;;;;;;;8.27;1.30;;;9.80;99.90;;;;;;5061723;28;21485;-69
2023/10/30 04:42:59;;;;;;;5.88;1.20;;;9.80;99.90;;;;;;5060734;28;20051;-69
2023/10/30 04:45:25;;;;;;;12.43;1.55;;;9.80;99.90;;;;;;5061678;28;20082;-69
2023/10/30 04:47:51;;;;;;;7.75;1.23;;;9.80;99.90;;;;;;5058873;28;20066;-69
2023/10/30 04:50:16;;;;;;;8.88;1.30;;;9.80;99.90;;;;;;5092447;28;20078;-69
2023/10/30 04:52:42;;;;;;;6.50;0.82;;;9.80;99.90;;;;;;5061721;28;20047;-69
2023/10/30 04:55:08;;;;;;;11.30;1.63;;;9.80;99.90;;;;;;5062526;28;20048;-69
2023/10/30 04:57:33;;;;;;;5.60;1.23;;;9.80;99.90;;;;;;5058495;28;20032;-69
2023/10/30 04:59:59;;;;;;;11.38;1.67;;;9.70;99.90;;;;;;5060361;28;20113;-68
2023/10/30 05:02:25;;;;;;;8.25;1.35;;;9.70;99.90;;;;;;5061058;28;20480;-68
2023/10/30 05:04:50;;;;;;;6.93;1.02;;;9.70;99.90;;;;;;5062930;28;20041;-68
2023/10/30 05:07:16;;;;;;;7.55;1.45;;;9.60;99.90;;;;;;5062521;28;20040;-68
2023/10/30 05:09:42;;;;;;;13.65;3.30;;;9.70;99.90;;;;;;5061766;28;20044;-68
2023/10/30 05:12:07;;;;;;;10.95;1.52;;;9.70;99.90;;;;;;5065329;28;20044;-68
2023/10/30 05:14:33;;;;;;;6.85;1.60;;;9.70;99.90;;;;;;5066774;28;20382;-69
2023/10/30 05:16:58;;;;;;;4.85;0.93;;;9.60;99.90;;;;;;5066382;28;20124;-68
2023/10/30 05:19:25;;;;;;;8.93;2.35;;;9.70;99.90;;;;;;5066313;28;20044;-68
2023/10/30 05:21:51;;;;;;;11.20;1.70;;;9.60;99.90;;;;;;5095329;28;20810;-68
2023/10/30 05:24:16;;;;;;;4.75;0.90;;;9.60;99.90;;;;;;5060508;28;20109;-68
2023/10/30 05:26:42;;;;;;;5.05;0.95;;;9.60;99.90;;;;;;5061574;28;20867;-68
2023/10/30 05:29:08;;;;;;;7.60;1.95;;;9.70;99.90;;;;;;5059902;28;20040;-68
2023/10/30 05:31:34;;;;;;;5.00;1.50;;;9.60;99.90;;;;;;5064692;28;20518;-68
2023/10/30 05:33:59;;;;;;;5.85;0.98;;;9.60;99.90;;;;;;5097823;28;20318;-68
2023/10/30 05:36:25;;;;;;;7.20;1.27;;;9.60;99.90;;;;;;5067643;28;20056;-68
2023/10/30 05:38:50;;;;;;;9.23;1.85;;;9.50;99.90;;;;;;5066274;28;20037;-68
2023/10/30 05:41:16;;;;;;;9.45;1.52;;;9.50;99.90;;;;;;5066026;28;20036;-68
2023/10/30 05:43:42;;;;;;;8.60;1.38;;;9.50;99.90;;;;;;5064686;28;20033;-68
2023/10/30 05:46:08;;;;;;;6.18;1.38;;;9.50;99.90;;;;;;5067577;28;20555;-68
2023/10/30 05:48:33;;;;;;;11.52;1.58;;;9.50;99.90;;;;;;5076282;28;20040;-68
2023/10/30 05:50:59;;;;;;;9.70;1.40;;;9.50;99.90;;;;;;5066021;28;20479;-68
2023/10/30 05:53:25;;;;;;;8.95;1.42;;;9.40;99.90;;;;;;5065335;28;20041;-68
2023/10/30 05:55:50;;;;;;;10.13;2.10;;;9.50;99.90;;;;;;5065897;28;20609;-68
2023/10/30 05:58:17;;;;;;;12.45;1.67;;;9.40;99.90;;;;;;5062171;28;20067;-68
2023/10/30 06:00:43;;;;;;;10.95;1.48;;;9.40;99.90;;;;;;5065349;28;20503;-68
2023/10/30 06:03:09;;;;;;;7.75;1.05;;;9.50;99.90;;;;;;5057264;28;20044;-68
2023/10/30 06:05:35;;;;;;;10.27;2.03;;;9.50;99.90;;;;;;5060344;28;20391;-68
2023/10/30 06:08:01;;;;;;;6.25;1.15;;;9.50;99.90;;;;;;5062963;28;20052;-68
2023/10/30 06:10:28;;;;;;;8.98;1.70;;;9.50;99.90;;;;;;5065087;28;20040;-69
2023/10/30 06:12:53;;;;;;;14.30;2.65;;;9.50;99.90;;;;;;5062066;28;20036;-68
2023/10/30 06:15:19;;;;;;;8.95;1.17;;;9.50;99.90;;;;;;5064159;28;20510;-69
2023/10/30 06:17:45;;;;;;;9.57;1.45;;;9.50;99.90;;;;;;5063133;28;20040;-69
2023/10/30 06:20:11;;;;;;;12.75;1.33;;;9.50;99.90;;;;;;5061835;28;20431;-69
2023/10/30 06:22:37;;;;;;;10.02;1.30;;;9.50;99.90;;;;;;5099775;28;20040;-69
2023/10/30 06:25:03;;;;;;;8.70;1.48;;;9.60;99.90;;;;;;5066066;28;20064;-69
2023/10/30 06:27:32;;;;;;;13.40;1.63;;;9.60;99.90;;;;;;5084107;28;20036;-69
2023/10/30 06:29:58;;;;;;;7.63;1.10;;;9.60;99.90;;;;;;5065256;28;20044;-69
2023/10/30 06:32:24;;;;;;;8.18;1.25;;;9.60;99.90;;;;;;5067795;28;20052;-69
2023/10/30 06:34:49;;;;;;;6.55;0.93;;;9.60;99.90;;;;;;5068772;28;20044;-69
2023/10/30 06:37:15;;;;;;;9.45;1.63;;;9.70;99.90;;;;;;5068313;28;20805;-69
2023/10/30 06:39:45;;;;;;;8.13;1.88;;;9.70;99.90;;;;;;5063210;28;20411;-69
2023/10/30 06:42:10;;;;;;;13.65;1.73;;;9.60;99.90;;;;;;5067401;28;20097;-69
2023/10/30 06:44:36;;;;;;;9.98;1.05;;;9.70;99.90;;;;;;5066842;28;20048;-69
2023/10/30 06:47:02;;;;;;;8.65;1.30;;;9.70;99.90;;;;;;5068810;28;20037;-69
2023/10/30 06:49:27;;;;;;;14.70;1.60;;;9.70;99.90;;;;;;5067113;28;20072;-69
2023/10/30 06:51:53;;;;;;;10.00;1.92;;;9.70;99.90;;;;;;5063429;28;20044;-69
2023/10/30 06:54:19;;;;;;;9.35;1.80;;;9.80;99.90;;;;;;5068663;28;20036;-69
2023/10/30 06:56:45;;;;;;;11.27;2.53;;;9.90;99.90;;;;;;5068916;28;20502;-69
2023/10/30 06:59:13;;;;;;;5.47;0.88;;;9.90;99.90;;;;;;5064933;28;20048;-69
2023/10/30 07:01:42;;;;;;;9.38;1.10;;;10.00;99.90;;;;;;5066141;28;20041;-69
2023/10/30 07:04:07;;;;;;;10.20;1.60;;;10.10;99.90;;;;;;5066731;28;20116;-69
2023/10/30 07:06:33;;;;;;;12.13;1.70;;;10.10;99.90;;;;;;5069579;28;20111;-69
2023/10/30 07:08:58;;;;;;;16.58;1.88;;;10.20;99.90;;;;;;5065935;28;20483;-69
2023/10/30 07:11:24;;;;;;;10.60;1.50;;;10.20;99.90;;;;;;5065270;28;20039;-69
2023/10/30 07:13:50;;;;;;;6.15;0.98;;;10.30;99.90;;;;;;5061455;28;20959;-69
2023/10/30 07:16:17;;;;;;;9.88;1.88;;;10.30;99.90;;;;;;5057954;28;20048;-69
2023/10/30 07:18:44;;;;;;;10.50;1.80;;;10.30;99.90;;;;;;5066017;28;20075;-69
2023/10/30 07:21:09;;;;;;;10.40;1.10;;;10.30;99.90;;;;;;5070321;28;20048;-69
2023/10/30 07:23:35;;;;;;;9.57;1.83;;;10.40;99.90;;;;;;5069206;28;20044;-69
2023/10/30 07:26:00;;;;;;;9.73;1.30;;;10.40;99.90;;;;;;5069537;28;20033;-69
2023/10/30 07:28:26;;;;;;;6.97;1.38;;;10.40;99.90;;;;;;5066151;28;20032;-69
2023/10/30 07:30:52;;;;;;;6.82;1.00;;;10.50;99.90;;;;;;5070878;28;20025;-69
2023/10/30 07:33:18;;;;;;;7.15;1.67;;;10.50;99.90;;;;;;5068908;28;20560;-69
2023/10/30 07:35:43;;;;;;;7.18;1.35;;;10.50;99.90;;;;;;5069291;28;20048;-69
2023/10/30 07:38:09;;;;;;;12.10;1.42;;;10.50;99.90;;;;;;5080577;28;20074;-69
2023/10/30 07:40:34;;;;;;;8.73;2.13;;;10.60;99.90;;;;;;5067158;28;20032;-69
2023/10/30 07:43:00;;;;;;;7.53;1.73;;;10.60;99.90;;;;;;5069645;28;20032;-69
2023/10/30 07:45:25;;;;;;;8.60;1.45;;;10.60;99.90;;;;;;5053392;28;20118;-69
2023/10/30 07:47:52;;;;;;;7.15;1.50;;;10.60;99.90;;;;;;5067787;28;20040;-69
2023/10/30 07:50:18;;;;;;;10.45;1.70;;;10.70;99.90;;;;;;5069423;28;20044;-69
2023/10/30 07:52:44;;;;;;;10.20;1.27;;;10.70;99.90;;;;;;5069811;28;20036;-69
2023/10/30 07:55:10;;;;;;;9.35;1.67;;;10.70;99.90;;;;;;5064639;28;20055;-69
2023/10/30 07:57:35;;;;;;;8.75;1.30;;;10.80;99.90;;;;;;5067679;28;20048;-70
2023/10/30 08:00:01;;;;;;;11.68;1.85;;;10.90;99.90;;;;;;5069360;28;20391;-70
2023/10/30 08:02:27;;;;;;;9.80;1.60;;;10.80;99.90;;;;;;5068502;28;20036;-69
2023/10/30 08:04:52;;;;;;;9.27;1.65;;;10.90;99.90;;;;;;5068772;28;20364;-69
2023/10/30 08:07:18;;;;;;;9.60;1.83;;;10.90;99.90;;;;;;5068834;28;20044;-69
2023/10/30 08:09:44;;;;;;;9.25;1.52;;;11.00;99.90;;;;;;5063742;28;20101;-69
2023/10/30 08:12:09;;;;;;;8.07;2.17;;;11.00;99.90;;;;;;5067155;28;20410;-69
2023/10/30 08:14:36;;;;;;;10.18;2.45;;;11.10;99.90;;;;;;5068732;28;20040;-69
2023/10/30 08:17:02;;;;;;;6.90;1.42;;;11.10;99.90;;;;;;5068187;28;20125;-69
2023/10/30 08:19:28;;;;;;;10.30;1.58;;;11.10;99.90;;;;;;5066035;28;20068;-69
2023/10/30 08:21:53;;;;;;;9.75;1.75;;;11.20;99.90;;;;;;5083836;28;20422;-69
2023/10/30 08:24:19;;;;;;;7.40;1.50;;;11.20;99.90;;;;;;5066996;28;20033;-69
2023/10/30 08:26:45;;;;;;;8.68;2.20;;;11.30;99.90;;;;;;5068628;28;20029;-69
2023/10/30 08:29:11;;;;;;;6.85;1.20;;;11.30;99.90;;;;;;5066533;28;20051;-69
2023/10/30 08:31:38;;;;;;;7.60;0.77;;;11.40;99.90;;;;;;5049811;28;20036;-69
2023/10/30 08:34:04;;;;;;;11.45;1.75;;;11.40;99.90;;;;;;5067790;28;20398;-69
2023/10/30 08:36:29;;;;;;;7.30;1.70;;;11.50;99.90;;;;;;5068137;28;20040;-69
2023/10/30 08:38:55;;;;;;;9.57;1.50;;;11.60;99.90;;;;;;5068537;28;20035;-69
2023/10/30 08:41:22;;;;;;;8.50;1.38;;;11.60;99.90;;;;;;5068778;28;20042;-69
2023/10/30 08:43:47;;;;;;;7.82;1.45;;;11.60;99.90;;;;;;5099360;28;20080;-69
2023/10/30 08:46:18;;;;;;;4.88;1.00;;;11.70;99.90;;;;;;5066278;28;20083;-69
2023/10/30 08:48:44;;;;;;;4.53;1.00;;;11.80;99.90;;;;;;5048674;28;20041;-69
2023/10/30 08:51:09;;;;;;;8.30;1.55;;;11.80;99.90;;;;;;5067299;28;20041;-69
2023/10/30 08:53:35;;;;;;;7.80;1.50;;;11.90;99.90;;;;;;5068856;28;20120;-70
2023/10/30 08:56:01;;;;;;;10.00;1.30;;;11.90;99.90;;;;;;5065679;28;20078;-69
2023/10/30 08:58:27;;;;;;;5.15;1.48;;;11.90;99.90;;;;;;5069204;28;20439;-70
2023/10/30 09:00:53;;;;;;;12.73;2.83;;;12.00;99.90;;;;;;5097316;28;20040;-70
2023/10/30 09:03:19;;;;;;;6.20;1.75;;;12.10;99.90;;;;;;5067397;28;20487;-70
2023/10/30 09:05:45;;;;;;;6.97;1.40;;;12.10;99.90;;;;;;5070408;28;20074;-70
2023/10/30 09:08:11;;;;;;;8.65;1.70;;;12.10;99.90;;;;;;5068206;28;20048;-70
2023/10/30 09:10:36;;;;;;;10.85;1.77;;;12.20;99.90;;;;;;5067003;28;20051;-70
2023/10/30 09:13:02;;;;;;;10.27;1.95;;;12.30;99.90;;;;;;5069720;28;20051;-70
2023/10/30 09:15:28;;;;;;;11.05;2.78;;;12.50;99.90;;;;;;5068689;28;20410;-70
2023/10/30 09:17:55;;;;;;;7.57;1.45;;;12.40;99.90;;;;;;5066046;28;20048;-70
2023/10/30 09:20:21;;;;;;;7.53;1.30;;;12.40;99.90;;;;;;5069286;28;20097;-69
2023/10/30 09:22:46;;;;;;;11.27;1.40;;;12.50;99.90;;;;;;5068678;28;20037;-69
2023/10/30 09:25:12;;;;;;;10.32;1.50;;;12.60;99.90;;;;;;5066210;28;20041;-70
2023/10/30 09:27:38;;;;;;;6.93;1.85;;;12.70;99.90;;;;;;5068449;28;20041;-70
2023/10/30 09:30:05;;;;;;;7.72;1.30;;;12.70;99.90;;;;;;5068161;28;20036;-69
2023/10/30 09:32:31;;;;;;;8.13;1.90;;;12.80;99.90;;;;;;5065651;28;20128;-70
2023/10/30 09:34:59;;;;;;;10.45;1.75;;;12.90;99.90;;;;;;5068554;28;20052;-70
2023/10/30 09:37:25;;;;;;;10.40;1.98;;;13.00;99.90;;;;;;5067459;28;20055;-70
2023/10/30 09:39:51;;;;;;;11.23;1.90;;;13.00;99.90;;;;;;5100098;28;20044;-70
2023/10/30 09:42:17;;;;;;;7.32;1.25;;;13.00;99.90;;;;;;5065671;28;20051;-70
2023/10/30 09:44:43;;;;;;;10.40;1.60;;;13.00;99.90;;;;;;5068731;28;20395;-70
2023/10/30 09:47:09;;;;;;;9.70;2.10;;;13.10;99.90;;;;;;5066391;28;20123;-69
2023/10/30 09:49:36;;;;;;;9.38;2.28;;;13.10;99.90;;;;;;5067108;28;20348;-70
2023/10/30 09:52:04;;;;;;;11.32;1.38;;;13.00;99.90;;;;;;5068445;28;20102;-70
2023/10/30 09:54:32;;;;;;;8.15;1.85;;;13.10;99.90;;;;;;5067773;28;20070;-70
2023/10/30 09:57:00;;;;;;;13.45;2.05;;;13.10;99.90;;;;;;5064918;28;20045;-70
2023/10/30 09:59:26;;;;;;;10.48;1.73;;;13.20;99.90;;;;;;5072771;28;20395;-70
2023/10/30 10:01:52;;;;;;;8.68;1.25;;;13.00;99.90;;;;;;5070402;28;20044;-70
2023/10/30 10:04:17;;;;;;;10.90;1.75;;;12.90;99.90;;;;;;5071862;28;20043;-69
2023/10/30 10:06:44;;;;;;;8.98;1.33;;;12.90;99.90;;;;;;5072331;28;20032;-70
2023/10/30 10:09:10;;;;;;;7.18;1.58;;;12.90;99.90;;;;;;5066697;28;20037;-70
2023/10/30 10:11:36;;;;;;;8.45;1.63;;;12.80;99.90;;;;;;5071001;28;20445;-70
2023/10/30 10:14:02;;;;;;;9.00;1.10;;;12.70;99.90;;;;;;5066490;28;20056;-70
2023/10/30 10:16:30;;;;;;;5.57;1.23;;;12.70;99.90;;;;;;5069321;28;20045;-69
2023/10/30 10:18:56;;;;;;;7.15;1.20;;;12.60;99.90;;;;;;5069098;28;20044;-70
2023/10/30 10:21:22;;;;;;;7.75;1.35;;;12.70;99.90;;;;;;5071825;28;20037;-70
2023/10/30 10:23:48;;;;;;;9.60;1.48;;;12.80;99.90;;;;;;5070345;28;20395;-69
2023/10/30 10:26:14;;;;;;;12.93;1.58;;;12.80;99.90;;;;;;5069901;28;20051;-69
2023/10/30 10:28:45;;;;;;;11.32;1.75;;;12.90;99.90;;;;;;5069452;28;20115;-70
2023/10/30 10:31:10;;;;;;;5.55;1.63;;;12.90;99.90;;;;;;5070541;28;20460;-70
2023/10/30 10:33:37;;;;;;;6.35;1.50;;;13.00;99.90;;;;;;5071526;28;20043;-70
2023/10/30 10:36:04;;;;;;;11.50;2.40;;;13.10;99.90;;;;;;5069473;28;20047;-70
2023/10/30 10:38:31;;;;;;;10.90;1.83;;;13.20;99.90;;;;;;5100876;28;20058;-70
2023/10/30 10:40:57;;;;;;;6.47;1.33;;;13.20;99.90;;;;;;5084144;28;20056;-70
2023/10/30 10:43:25;;;;;;;10.70;1.45;;;13.30;99.90;;;;;;5070571;28;20049;-70
2023/10/30 10:45:52;;;;;;;11.70;2.03;;;13.40;99.90;;;;;;5070195;28;20387;-70
2023/10/30 10:48:25;;;;;;;10.73;2.00;;;13.50;99.90;;;;;;5069828;28;20129;-70
2023/10/30 10:50:53;;;;;;;7.65;1.35;;;13.50;99.90;;;;;;5069008;28;20040;-70
2023/10/30 10:53:19;;;;;;;9.90;1.73;;;13.50;99.90;;;;;;5068215;28;20098;-70
2023/10/30 10:55:47;;;;;;;10.68;1.63;;;13.50;99.90;;;;;;5069198;28;20120;-70
2023/10/30 10:58:30;;;;;;;7.03;1.23;;;13.70;99.90;;;;;;5071444;28;20049;-70
2023/10/30 11:00:58;;;;;;;11.45;2.50;;;14.10;99.90;;;;;;5066378;28;20048;-70
2023/10/30 11:03:24;;;;;;;9.38;2.00;;;14.00;99.90;;;;;;5071707;28;20040;-69
2023/10/30 11:05:51;;;;;;;7.75;1.30;;;14.20;99.90;;;;;;5069769;28;20036;-70
2023/10/30 11:08:22;;;;;;;7.65;1.42;;;14.40;99.90;;;;;;5069277;28;20041;-70
2023/10/30 11:11:05;;;;;;;5.90;1.05;;;14.40;99.90;;;;;;5070159;28;20048;-69
2023/10/30 11:13:42;;;;;;;10.85;1.80;;;14.50;99.90;;;;;;5046364;28;20102;-69
2023/10/30 11:16:22;;;;;;;14.60;1.80;;;14.60;99.90;;;;;;5069036;28;20094;-70
2023/10/30 11:18:54;;;;;;;11.38;1.70;;;14.60;99.90;;;;;;5068356;28;20119;-70
2023/10/30 11:21:25;;;;;;;12.10;1.65;;;14.50;99.90;;;;;;5069955;28;20056;-70
2023/10/30 11:23:58;;;;;;;7.18;1.63;;;14.40;99.90;;;;;;5069958;28;20054;-70
2023/10/30 11:26:36;;;;;;;5.43;1.77;;;14.50;99.90;;;;;;5100584;27;20032;-70
2023/10/30 11:29:11;;;;;;;5.20;1.63;;;14.50;99.90;;;;;;5068752;28;20044;-70
2023/10/30 11:32:02;;;;;;;8.48;1.40;;;14.50;99.90;;;;;;5068702;28;20472;-69
2023/10/30 11:34:33;;;;;;;11.38;2.78;;;14.40;99.90;;;;;;5069330;28;20044;-69
2023/10/30 11:37:02;;;;;;;8.80;1.40;;;14.50;99.90;;;;;;5069556;28;20422;-70
2023/10/30 11:39:36;;;;;;;5.90;1.63;;;14.40;99.90;;;;;;5071632;28;20048;-70
2023/10/30 11:42:02;;;;;;;9.23;1.23;;;14.30;99.90;;;;;;5071928;28;20143;-70
2023/10/30 11:44:30;;;;;;;7.22;1.63;;;14.30;99.90;;;;;;5066263;28;20036;-70
2023/10/30 11:46:57;;;;;;;12.13;2.58;;;14.50;99.90;;;;;;5067517;28;20059;-70
2023/10/30 11:49:45;;;;;;;5.85;1.27;;;14.40;99.90;;;;;;5101711;28;20040;-70
2023/10/30 11:52:12;;;;;;;7.40;1.67;;;14.30;99.90;;;;;;5062144;28;20055;-70
2023/10/30 11:54:41;;;;;;;7.25;1.40;;;14.30;99.90;;;;;;5068359;28;20483;-70
2023/10/30 11:57:07;;;;;;;7.95;2.20;;;14.30;99.90;;;;;;5099874;28;20049;-70
2023/10/30 11:59:33;;;;;;;13.43;1.70;;;14.20;99.90;;;;;;5067578;28;20041;-70
2023/10/30 12:01:59;;;;;;;11.27;2.17;;;14.10;99.90;;;;;;5068925;28;20039;-69
2023/10/30 12:04:26;;;;;;;9.23;1.70;;;14.10;99.90;;;;;;5070881;28;20106;-69
2023/10/30 12:06:52;;;;;;;12.57;1.98;;;14.10;99.90;;;;;;5066599;28;20402;-69
2023/10/30 12:09:20;;;;;;;9.88;1.40;;;14.10;99.90;;;;;;5068827;28;20032;-70
2023/10/30 12:11:45;;;;;;;3.55;0.90;;;14.00;99.90;;;;;;5071002;28;20661;-69
2023/10/30 12:14:12;;;;;;;11.40;2.00;;;14.00;99.90;;;;;;5067974;28;20047;-69
2023/10/30 12:16:38;;;;;;;7.10;1.40;;;14.00;99.90;;;;;;5068659;28;20094;-69
2023/10/30 12:19:04;;;;;;;15.18;2.15;;;14.00;99.90;;;;;;5083429;28;20479;-69
2023/10/30 12:21:30;;;;;;;11.32;1.35;;;14.00;99.90;;;;;;5065451;28;20074;-69
2023/10/30 12:23:57;;;;;;;10.88;1.27;;;14.00;99.90;;;;;;5069721;28;20036;-69
2023/10/30 12:26:23;;;;;;;13.25;2.10;;;14.00;99.90;;;;;;5051217;28;20036;-69
2023/10/30 12:28:49;;;;;;;8.45;1.42;;;14.10;99.90;;;;;;5068347;28;20545;-69
2023/10/30 12:31:15;;;;;;;8.30;1.63;;;14.00;99.90;;;;;;5068562;28;20144;-69
2023/10/30 12:33:41;;;;;;;7.47;1.10;;;14.00;99.90;;;;;;5061707;28;20048;-69
2023/10/30 12:36:07;;;;;;;8.30;1.42;;;14.00;99.90;;;;;;5068194;28;20044;-68
2023/10/30 12:38:32;;;;;;;12.02;1.33;;;14.10;99.90;;;;;;5065625;28;20929;-69
2023/10/30 12:41:06;;;;;;;9.88;1.50;;;14.00;99.90;;;;;;5067739;28;20542;-68
2023/10/30 12:43:37;;;;;;;8.88;1.55;;;14.00;99.90;;;;;;5068361;28;20045;-68